sensor_id;sensor_type;location;lat;lon;timestamp;P1;durP1;ratioP1;P2;durP2;ratioP2
56860;SDS011;42744;51.094;3.490;2023-03-13T00:01:08;18.37;;;4.73;;
56860;SDS011;42744;51.094;3.490;2023-03-13T00:03:39;12.07;;;4.30;;
56860;SDS011;42744;51.094;3.490;2023-03-13T00:06:06;17.43;;;5.23;;
56860;SDS011;42744;51.094;3.490;2023-03-13T00:08:32;23.53;;;5.80;;
56860;SDS011;42744;51.094;3.490;2023-03-13T00:11:01;19.80;;;4.17;;
56860;SDS011;42744;51.094;3.490;2023-03-13T00:13:28;14.30;;;4.60;;
56860;SDS011;42744;51.094;3.490;2023-03-13T00:16:01;13.20;;;4.00;;
56860;SDS011;42744;51.094;3.490;2023-03-13T00:18:51;18.53;;;4.37;;
56860;SDS011;42744;51.094;3.490;2023-03-13T00:21:19;15.03;;;3.83;;
56860;SDS011;42744;51.094;3.490;2023-03-13T00:23:47;17.07;;;4.10;;
56860;SDS011;42744;51.094;3.490;2023-03-13T00:26:14;12.93;;;4.83;;
56860;SDS011;42744;51.094;3.490;2023-03-13T00:28:46;16.37;;;5.10;;
56860;SDS011;42744;51.094;3.490;2023-03-13T00:31:14;13.43;;;4.27;;
56860;SDS011;42744;51.094;3.490;2023-03-13T00:33:43;11.43;;;3.70;;
56860;SDS011;42744;51.094;3.490;2023-03-13T00:36:12;11.07;;;3.93;;
56860;SDS011;42744;51.094;3.490;2023-03-13T00:38:43;13.17;;;4.50;;
56860;SDS011;42744;51.094;3.490;2023-03-13T00:41:19;9.97;;;4.47;;
56860;SDS011;42744;51.094;3.490;2023-03-13T00:43:47;14.07;;;4.27;;
56860;SDS011;42744;51.094;3.490;2023-03-13T00:46:14;14.30;;;5.03;;
56860;SDS011;42744;51.094;3.490;2023-03-13T00:48:41;10.60;;;4.17;;
56860;SDS011;42744;51.094;3.490;2023-03-13T00:51:08;11.83;;;4.03;;
56860;SDS011;42744;51.094;3.490;2023-03-13T00:53:34;10.00;;;4.63;;
56860;SDS011;42744;51.094;3.490;2023-03-13T00:58:28;10.93;;;4.13;;
56860;SDS011;42744;51.094;3.490;2023-03-13T01:00:55;8.83;;;3.90;;
56860;SDS011;42744;51.094;3.490;2023-03-13T01:03:22;8.87;;;4.10;;
56860;SDS011;42744;51.094;3.490;2023-03-13T01:05:59;8.97;;;3.53;;
56860;SDS011;42744;51.094;3.490;2023-03-13T01:08:26;13.03;;;4.20;;
56860;SDS011;42744;51.094;3.490;2023-03-13T01:11:01;10.00;;;3.83;;
56860;SDS011;42744;51.094;3.490;2023-03-13T01:13:37;12.27;;;4.33;;
56860;SDS011;42744;51.094;3.490;2023-03-13T01:16:17;10.30;;;3.80;;
56860;SDS011;42744;51.094;3.490;2023-03-13T01:18:46;6.50;;;3.27;;
56860;SDS011;42744;51.094;3.490;2023-03-13T01:21:14;9.23;;;3.53;;
56860;SDS011;42744;51.094;3.490;2023-03-13T01:23:43;8.17;;;3.40;;
56860;SDS011;42744;51.094;3.490;2023-03-13T01:26:09;9.77;;;3.07;;
56860;SDS011;42744;51.094;3.490;2023-03-13T01:28:36;8.80;;;3.33;;
56860;SDS011;42744;51.094;3.490;2023-03-13T01:31:10;8.60;;;3.63;;
56860;SDS011;42744;51.094;3.490;2023-03-13T01:33:43;8.80;;;2.90;;
56860;SDS011;42744;51.094;3.490;2023-03-13T01:36:10;5.87;;;2.90;;
56860;SDS011;42744;51.094;3.490;2023-03-13T01:38:37;5.50;;;3.30;;
56860;SDS011;42744;51.094;3.490;2023-03-13T01:41:05;8.00;;;2.87;;
56860;SDS011;42744;51.094;3.490;2023-03-13T01:43:34;5.57;;;2.50;;
56860;SDS011;42744;51.094;3.490;2023-03-13T01:46:03;8.57;;;3.37;;
56860;SDS011;42744;51.094;3.490;2023-03-13T01:52:07;6.77;;;2.50;;
56860;SDS011;42744;51.094;3.490;2023-03-13T01:54:22;5.70;;;2.50;;
56860;SDS011;42744;51.094;3.490;2023-03-13T01:56:57;5.67;;;3.00;;
56860;SDS011;42744;51.094;3.490;2023-03-13T01:59:30;9.93;;;2.70;;
56860;SDS011;42744;51.094;3.490;2023-03-13T02:02:00;6.00;;;3.27;;
56860;SDS011;42744;51.094;3.490;2023-03-13T02:04:35;5.57;;;3.20;;
56860;SDS011;42744;51.094;3.490;2023-03-13T02:07:05;8.33;;;3.17;;
56860;SDS011;42744;51.094;3.490;2023-03-13T02:09:38;4.33;;;3.30;;
56860;SDS011;42744;51.094;3.490;2023-03-13T02:12:12;5.67;;;3.23;;
56860;SDS011;42744;51.094;3.490;2023-03-13T02:14:42;4.83;;;3.30;;
56860;SDS011;42744;51.094;3.490;2023-03-13T02:17:11;6.37;;;3.33;;
56860;SDS011;42744;51.094;3.490;2023-03-13T02:19:48;7.70;;;3.50;;
56860;SDS011;42744;51.094;3.490;2023-03-13T02:27:29;6.17;;;3.87;;
56860;SDS011;42744;51.094;3.490;2023-03-13T02:29:55;5.73;;;3.90;;
56860;SDS011;42744;51.094;3.490;2023-03-13T02:32:23;7.70;;;4.50;;
56860;SDS011;42744;51.094;3.490;2023-03-13T02:34:53;6.23;;;4.03;;
56860;SDS011;42744;51.094;3.490;2023-03-13T02:37:22;5.80;;;4.00;;
56860;SDS011;42744;51.094;3.490;2023-03-13T02:39:51;8.23;;;4.20;;
56860;SDS011;42744;51.094;3.490;2023-03-13T02:42:19;5.00;;;4.30;;
56860;SDS011;42744;51.094;3.490;2023-03-13T02:44:47;7.13;;;4.17;;
56860;SDS011;42744;51.094;3.490;2023-03-13T02:47:19;4.77;;;4.10;;
56860;SDS011;42744;51.094;3.490;2023-03-13T02:49:47;5.47;;;4.40;;
56860;SDS011;42744;51.094;3.490;2023-03-13T02:55:05;7.93;;;4.30;;
56860;SDS011;42744;51.094;3.490;2023-03-13T02:57:35;8.67;;;4.33;;
56860;SDS011;42744;51.094;3.490;2023-03-13T03:00:01;7.37;;;4.10;;
56860;SDS011;42744;51.094;3.490;2023-03-13T03:02:32;6.23;;;4.00;;
56860;SDS011;42744;51.094;3.490;2023-03-13T03:04:58;7.00;;;4.30;;
56860;SDS011;42744;51.094;3.490;2023-03-13T03:07:24;5.07;;;3.70;;
56860;SDS011;42744;51.094;3.490;2023-03-13T03:09:50;6.97;;;4.00;;
56860;SDS011;42744;51.094;3.490;2023-03-13T03:12:16;5.73;;;3.63;;
56860;SDS011;42744;51.094;3.490;2023-03-13T03:14:43;8.07;;;4.60;;
56860;SDS011;42744;51.094;3.490;2023-03-13T03:17:09;7.10;;;3.80;;
56860;SDS011;42744;51.094;3.490;2023-03-13T03:19:35;4.53;;;3.60;;
56860;SDS011;42744;51.094;3.490;2023-03-13T03:22:01;4.97;;;3.27;;
56860;SDS011;42744;51.094;3.490;2023-03-13T03:24:28;4.63;;;3.40;;
56860;SDS011;42744;51.094;3.490;2023-03-13T03:26:54;7.07;;;3.40;;
56860;SDS011;42744;51.094;3.490;2023-03-13T03:29:20;6.77;;;3.80;;
56860;SDS011;42744;51.094;3.490;2023-03-13T03:31:47;5.27;;;3.50;;
56860;SDS011;42744;51.094;3.490;2023-03-13T03:34:13;7.47;;;3.63;;
56860;SDS011;42744;51.094;3.490;2023-03-13T03:36:38;5.30;;;3.20;;
56860;SDS011;42744;51.094;3.490;2023-03-13T03:39:05;5.83;;;3.50;;
56860;SDS011;42744;51.094;3.490;2023-03-13T03:41:30;6.30;;;3.60;;
56860;SDS011;42744;51.094;3.490;2023-03-13T03:43:57;5.97;;;3.50;;
56860;SDS011;42744;51.094;3.490;2023-03-13T03:46:24;3.57;;;3.10;;
56860;SDS011;42744;51.094;3.490;2023-03-13T03:48:50;4.90;;;3.47;;
56860;SDS011;42744;51.094;3.490;2023-03-13T03:51:16;7.03;;;3.10;;
56860;SDS011;42744;51.094;3.490;2023-03-13T03:53:42;5.50;;;3.37;;
56860;SDS011;42744;51.094;3.490;2023-03-13T03:56:08;6.60;;;3.03;;
56860;SDS011;42744;51.094;3.490;2023-03-13T03:58:35;4.57;;;2.37;;
56860;SDS011;42744;51.094;3.490;2023-03-13T04:01:02;6.47;;;2.60;;
56860;SDS011;42744;51.094;3.490;2023-03-13T04:03:28;5.27;;;3.00;;
56860;SDS011;42744;51.094;3.490;2023-03-13T04:05:55;5.43;;;3.10;;
56860;SDS011;42744;51.094;3.490;2023-03-13T04:08:21;9.10;;;2.97;;
56860;SDS011;42744;51.094;3.490;2023-03-13T04:10:48;7.53;;;3.57;;
56860;SDS011;42744;51.094;3.490;2023-03-13T04:13:15;8.73;;;3.00;;
56860;SDS011;42744;51.094;3.490;2023-03-13T04:15:41;7.07;;;3.37;;
56860;SDS011;42744;51.094;3.490;2023-03-13T04:18:08;4.57;;;2.87;;
56860;SDS011;42744;51.094;3.490;2023-03-13T04:20:34;8.83;;;3.03;;
56860;SDS011;42744;51.094;3.490;2023-03-13T04:23:01;6.00;;;2.80;;
56860;SDS011;42744;51.094;3.490;2023-03-13T04:25:27;7.60;;;3.00;;
56860;SDS011;42744;51.094;3.490;2023-03-13T04:27:54;4.70;;;2.60;;
56860;SDS011;42744;51.094;3.490;2023-03-13T04:30:20;5.73;;;2.87;;
56860;SDS011;42744;51.094;3.490;2023-03-13T04:32:48;4.90;;;2.73;;
56860;SDS011;42744;51.094;3.490;2023-03-13T04:35:15;6.10;;;2.97;;
56860;SDS011;42744;51.094;3.490;2023-03-13T04:37:42;7.87;;;3.10;;
56860;SDS011;42744;51.094;3.490;2023-03-13T04:40:08;7.70;;;3.07;;
56860;SDS011;42744;51.094;3.490;2023-03-13T04:42:37;5.77;;;3.00;;
56860;SDS011;42744;51.094;3.490;2023-03-13T04:45:14;8.07;;;2.90;;
56860;SDS011;42744;51.094;3.490;2023-03-13T04:47:41;4.60;;;2.40;;
56860;SDS011;42744;51.094;3.490;2023-03-13T04:50:07;7.80;;;3.10;;
56860;SDS011;42744;51.094;3.490;2023-03-13T04:52:34;5.37;;;2.83;;
56860;SDS011;42744;51.094;3.490;2023-03-13T04:55:01;6.27;;;3.00;;
56860;SDS011;42744;51.094;3.490;2023-03-13T04:57:27;10.40;;;4.10;;
56860;SDS011;42744;51.094;3.490;2023-03-13T04:59:53;5.70;;;2.87;;
56860;SDS011;42744;51.094;3.490;2023-03-13T05:02:20;9.97;;;3.47;;
56860;SDS011;42744;51.094;3.490;2023-03-13T05:04:46;8.63;;;2.70;;
56860;SDS011;42744;51.094;3.490;2023-03-13T05:07:12;6.87;;;2.90;;
56860;SDS011;42744;51.094;3.490;2023-03-13T05:09:39;9.77;;;2.60;;
56860;SDS011;42744;51.094;3.490;2023-03-13T05:12:06;7.43;;;2.50;;
56860;SDS011;42744;51.094;3.490;2023-03-13T05:14:37;9.90;;;2.97;;
56860;SDS011;42744;51.094;3.490;2023-03-13T05:17:03;8.60;;;3.20;;
56860;SDS011;42744;51.094;3.490;2023-03-13T05:19:30;6.30;;;2.87;;
56860;SDS011;42744;51.094;3.490;2023-03-13T05:21:57;12.67;;;2.77;;
56860;SDS011;42744;51.094;3.490;2023-03-13T05:24:24;11.33;;;2.97;;
56860;SDS011;42744;51.094;3.490;2023-03-13T05:26:50;7.70;;;2.80;;
56860;SDS011;42744;51.094;3.490;2023-03-13T05:29:16;7.17;;;2.77;;
56860;SDS011;42744;51.094;3.490;2023-03-13T05:31:42;6.20;;;2.83;;
56860;SDS011;42744;51.094;3.490;2023-03-13T05:34:09;7.33;;;3.57;;
56860;SDS011;42744;51.094;3.490;2023-03-13T05:36:35;6.70;;;2.90;;
56860;SDS011;42744;51.094;3.490;2023-03-13T05:39:01;8.13;;;3.00;;
56860;SDS011;42744;51.094;3.490;2023-03-13T05:41:28;7.80;;;2.83;;
56860;SDS011;42744;51.094;3.490;2023-03-13T05:43:54;11.10;;;3.37;;
56860;SDS011;42744;51.094;3.490;2023-03-13T05:46:20;8.63;;;3.07;;
56860;SDS011;42744;51.094;3.490;2023-03-13T05:48:46;12.77;;;2.67;;
56860;SDS011;42744;51.094;3.490;2023-03-13T05:51:12;9.47;;;3.23;;
56860;SDS011;42744;51.094;3.490;2023-03-13T05:53:39;11.37;;;3.27;;
56860;SDS011;42744;51.094;3.490;2023-03-13T05:56:05;9.50;;;3.77;;
56860;SDS011;42744;51.094;3.490;2023-03-13T05:58:33;8.60;;;3.07;;
56860;SDS011;42744;51.094;3.490;2023-03-13T06:01:05;13.73;;;3.07;;
56860;SDS011;42744;51.094;3.490;2023-03-13T06:03:33;8.10;;;2.67;;
56860;SDS011;42744;51.094;3.490;2023-03-13T06:06:00;8.83;;;2.67;;
56860;SDS011;42744;51.094;3.490;2023-03-13T06:08:28;8.63;;;2.77;;
56860;SDS011;42744;51.094;3.490;2023-03-13T06:10:57;8.50;;;3.33;;
56860;SDS011;42744;51.094;3.490;2023-03-13T06:13:25;7.47;;;3.00;;
56860;SDS011;42744;51.094;3.490;2023-03-13T06:15:55;8.77;;;2.90;;
56860;SDS011;42744;51.094;3.490;2023-03-13T06:18:24;12.17;;;3.10;;
56860;SDS011;42744;51.094;3.490;2023-03-13T06:21:00;9.53;;;2.70;;
56860;SDS011;42744;51.094;3.490;2023-03-13T06:23:28;9.93;;;2.67;;
56860;SDS011;42744;51.094;3.490;2023-03-13T06:25:54;10.33;;;3.13;;
56860;SDS011;42744;51.094;3.490;2023-03-13T06:28:20;7.90;;;3.10;;
56860;SDS011;42744;51.094;3.490;2023-03-13T06:30:46;6.67;;;2.83;;
56860;SDS011;42744;51.094;3.490;2023-03-13T06:33:12;8.50;;;3.17;;
56860;SDS011;42744;51.094;3.490;2023-03-13T06:35:39;8.53;;;2.90;;
56860;SDS011;42744;51.094;3.490;2023-03-13T06:38:06;7.60;;;3.00;;
56860;SDS011;42744;51.094;3.490;2023-03-13T06:40:32;9.80;;;2.93;;
56860;SDS011;42744;51.094;3.490;2023-03-13T06:42:58;10.57;;;3.00;;
56860;SDS011;42744;51.094;3.490;2023-03-13T06:45:24;8.67;;;3.30;;
56860;SDS011;42744;51.094;3.490;2023-03-13T06:47:50;10.33;;;3.33;;
56860;SDS011;42744;51.094;3.490;2023-03-13T06:50:16;12.50;;;4.00;;
56860;SDS011;42744;51.094;3.490;2023-03-13T06:52:43;9.93;;;2.80;;
56860;SDS011;42744;51.094;3.490;2023-03-13T06:55:10;8.03;;;2.97;;
56860;SDS011;42744;51.094;3.490;2023-03-13T06:57:36;7.60;;;2.37;;
56860;SDS011;42744;51.094;3.490;2023-03-13T07:00:03;6.40;;;2.40;;
56860;SDS011;42744;51.094;3.490;2023-03-13T07:02:30;9.73;;;3.23;;
56860;SDS011;42744;51.094;3.490;2023-03-13T07:04:56;8.27;;;2.43;;
56860;SDS011;42744;51.094;3.490;2023-03-13T07:07:23;9.80;;;3.07;;
56860;SDS011;42744;51.094;3.490;2023-03-13T07:09:49;6.93;;;2.87;;
56860;SDS011;42744;51.094;3.490;2023-03-13T07:12:15;13.37;;;3.10;;
56860;SDS011;42744;51.094;3.490;2023-03-13T07:14:41;8.53;;;2.60;;
56860;SDS011;42744;51.094;3.490;2023-03-13T07:17:07;5.97;;;2.50;;
56860;SDS011;42744;51.094;3.490;2023-03-13T07:19:33;8.33;;;2.40;;
56860;SDS011;42744;51.094;3.490;2023-03-13T07:21:59;8.27;;;2.57;;
56860;SDS011;42744;51.094;3.490;2023-03-13T07:24:25;9.73;;;2.40;;
56860;SDS011;42744;51.094;3.490;2023-03-13T07:26:51;4.90;;;2.30;;
56860;SDS011;42744;51.094;3.490;2023-03-13T07:29:17;6.80;;;2.23;;
56860;SDS011;42744;51.094;3.490;2023-03-13T07:31:43;5.23;;;2.10;;
56860;SDS011;42744;51.094;3.490;2023-03-13T07:34:09;9.87;;;2.37;;
56860;SDS011;42744;51.094;3.490;2023-03-13T07:36:35;6.23;;;2.23;;
56860;SDS011;42744;51.094;3.490;2023-03-13T07:39:01;4.47;;;1.90;;
56860;SDS011;42744;51.094;3.490;2023-03-13T07:41:27;4.17;;;1.80;;
56860;SDS011;42744;51.094;3.490;2023-03-13T07:43:54;6.20;;;1.80;;
56860;SDS011;42744;51.094;3.490;2023-03-13T07:46:20;4.57;;;1.70;;
56860;SDS011;42744;51.094;3.490;2023-03-13T07:48:46;5.67;;;1.73;;
56860;SDS011;42744;51.094;3.490;2023-03-13T07:51:14;6.07;;;1.60;;
56860;SDS011;42744;51.094;3.490;2023-03-13T07:53:44;3.63;;;1.37;;
56860;SDS011;42744;51.094;3.490;2023-03-13T07:56:16;4.50;;;1.63;;
56860;SDS011;42744;51.094;3.490;2023-03-13T07:58:43;3.37;;;1.73;;
56860;SDS011;42744;51.094;3.490;2023-03-13T08:01:11;6.73;;;2.00;;
56860;SDS011;42744;51.094;3.490;2023-03-13T08:03:47;5.60;;;1.57;;
56860;SDS011;42744;51.094;3.490;2023-03-13T08:06:18;4.33;;;1.50;;
56860;SDS011;42744;51.094;3.490;2023-03-13T08:08:47;4.90;;;1.53;;
56860;SDS011;42744;51.094;3.490;2023-03-13T08:11:15;3.17;;;1.40;;
56860;SDS011;42744;51.094;3.490;2023-03-13T08:13:45;2.87;;;1.40;;
56860;SDS011;42744;51.094;3.490;2023-03-13T08:16:15;5.33;;;1.63;;
56860;SDS011;42744;51.094;3.490;2023-03-13T08:18:46;5.17;;;1.70;;
56860;SDS011;42744;51.094;3.490;2023-03-13T08:21:15;4.73;;;1.70;;
56860;SDS011;42744;51.094;3.490;2023-03-13T08:23:43;5.40;;;1.93;;
56860;SDS011;42744;51.094;3.490;2023-03-13T08:28:40;2.90;;;1.60;;
56860;SDS011;42744;51.094;3.490;2023-03-13T08:31:18;6.63;;;2.13;;
56860;SDS011;42744;51.094;3.490;2023-03-13T08:33:48;7.27;;;2.63;;
56860;SDS011;42744;51.094;3.490;2023-03-13T08:38:57;6.03;;;2.23;;
56860;SDS011;42744;51.094;3.490;2023-03-13T08:41:25;5.50;;;2.07;;
56860;SDS011;42744;51.094;3.490;2023-03-13T08:43:53;5.20;;;1.87;;
56860;SDS011;42744;51.094;3.490;2023-03-13T08:46:21;5.30;;;1.97;;
56860;SDS011;42744;51.094;3.490;2023-03-13T08:48:48;5.83;;;2.30;;
56860;SDS011;42744;51.094;3.490;2023-03-13T08:51:18;6.93;;;2.17;;
56860;SDS011;42744;51.094;3.490;2023-03-13T08:53:47;3.63;;;1.80;;
56860;SDS011;42744;51.094;3.490;2023-03-13T08:56:14;4.13;;;2.00;;
56860;SDS011;42744;51.094;3.490;2023-03-13T08:58:48;5.10;;;1.50;;
56860;SDS011;42744;51.094;3.490;2023-03-13T09:01:15;4.80;;;1.73;;
56860;SDS011;42744;51.094;3.490;2023-03-13T09:03:41;5.27;;;1.73;;
56860;SDS011;42744;51.094;3.490;2023-03-13T09:06:08;2.90;;;1.37;;
56860;SDS011;42744;51.094;3.490;2023-03-13T09:08:35;3.80;;;1.37;;
56860;SDS011;42744;51.094;3.490;2023-03-13T09:11:12;4.03;;;1.63;;
56860;SDS011;42744;51.094;3.490;2023-03-13T09:13:41;3.67;;;1.70;;
56860;SDS011;42744;51.094;3.490;2023-03-13T09:16:10;2.50;;;1.30;;
56860;SDS011;42744;51.094;3.490;2023-03-13T09:18:37;2.27;;;1.37;;
56860;SDS011;42744;51.094;3.490;2023-03-13T09:21:05;3.83;;;1.20;;
56860;SDS011;42744;51.094;3.490;2023-03-13T09:23:33;4.17;;;1.33;;
56860;SDS011;42744;51.094;3.490;2023-03-13T09:25:59;2.80;;;1.13;;
56860;SDS011;42744;51.094;3.490;2023-03-13T09:28:26;3.93;;;1.13;;
56860;SDS011;42744;51.094;3.490;2023-03-13T09:30:52;3.37;;;1.10;;
56860;SDS011;42744;51.094;3.490;2023-03-13T09:33:19;3.33;;;1.17;;
56860;SDS011;42744;51.094;3.490;2023-03-13T09:35:48;3.70;;;1.17;;
56860;SDS011;42744;51.094;3.490;2023-03-13T09:38:17;2.20;;;1.00;;
56860;SDS011;42744;51.094;3.490;2023-03-13T09:40:49;3.40;;;0.87;;
56860;SDS011;42744;51.094;3.490;2023-03-13T09:45:51;2.10;;;0.90;;
56860;SDS011;42744;51.094;3.490;2023-03-13T09:56:30;3.23;;;0.93;;
56860;SDS011;42744;51.094;3.490;2023-03-13T10:01:38;1.93;;;0.90;;
56860;SDS011;42744;51.094;3.490;2023-03-13T10:04:50;2.63;;;1.23;;
56860;SDS011;42744;51.094;3.490;2023-03-13T10:06:59;3.30;;;1.10;;
56860;SDS011;42744;51.094;3.490;2023-03-13T10:09:31;4.33;;;0.93;;
56860;SDS011;42744;51.094;3.490;2023-03-13T10:17:39;2.90;;;1.07;;
56860;SDS011;42744;51.094;3.490;2023-03-13T10:22:39;3.33;;;1.27;;
56860;SDS011;42744;51.094;3.490;2023-03-13T10:27:52;5.57;;;1.20;;
56860;SDS011;42744;51.094;3.490;2023-03-13T10:30:33;5.17;;;0.97;;
56860;SDS011;42744;51.094;3.490;2023-03-13T10:35:33;5.73;;;1.27;;
56860;SDS011;42744;51.094;3.490;2023-03-13T10:38:03;5.63;;;1.17;;
56860;SDS011;42744;51.094;3.490;2023-03-13T10:40:31;6.87;;;1.57;;
56860;SDS011;42744;51.094;3.490;2023-03-13T10:43:01;4.67;;;1.13;;
56860;SDS011;42744;51.094;3.490;2023-03-13T10:45:36;6.23;;;1.00;;
56860;SDS011;42744;51.094;3.490;2023-03-13T10:48:10;5.63;;;1.73;;
56860;SDS011;42744;51.094;3.490;2023-03-13T10:50:40;7.53;;;1.77;;
56860;SDS011;42744;51.094;3.490;2023-03-13T10:56:12;6.70;;;1.67;;
56860;SDS011;42744;51.094;3.490;2023-03-13T10:58:41;5.63;;;0.90;;
56860;SDS011;42744;51.094;3.490;2023-03-13T11:01:16;6.30;;;1.53;;
56860;SDS011;42744;51.094;3.490;2023-03-13T11:03:47;8.30;;;2.17;;
56860;SDS011;42744;51.094;3.490;2023-03-13T11:06:25;8.57;;;1.37;;
56860;SDS011;42744;51.094;3.490;2023-03-13T11:11:29;6.53;;;1.50;;
56860;SDS011;42744;51.094;3.490;2023-03-13T11:14:08;8.20;;;2.00;;
56860;SDS011;42744;51.094;3.490;2023-03-13T11:16:41;5.27;;;1.17;;
56860;SDS011;42744;51.094;3.490;2023-03-13T11:19:22;4.10;;;1.03;;
56860;SDS011;42744;51.094;3.490;2023-03-13T11:24:41;5.50;;;1.20;;
56860;SDS011;42744;51.094;3.490;2023-03-13T11:30:11;3.83;;;1.23;;
56860;SDS011;42744;51.094;3.490;2023-03-13T11:44:11;6.50;;;1.50;;
56860;SDS011;42744;51.094;3.490;2023-03-13T11:52:57;12.20;;;2.87;;
56860;SDS011;42744;51.094;3.490;2023-03-13T12:01:31;11.00;;;2.03;;
56860;SDS011;42744;51.094;3.490;2023-03-13T12:04:33;9.03;;;2.50;;
56860;SDS011;42744;51.094;3.490;2023-03-13T12:09:43;10.47;;;2.20;;
56860;SDS011;42744;51.094;3.490;2023-03-13T12:12:17;10.90;;;2.30;;
56860;SDS011;42744;51.094;3.490;2023-03-13T12:15:15;10.87;;;2.20;;
56860;SDS011;42744;51.094;3.490;2023-03-13T12:17:44;9.70;;;2.83;;
56860;SDS011;42744;51.094;3.490;2023-03-13T12:23:20;11.10;;;2.40;;
56860;SDS011;42744;51.094;3.490;2023-03-13T12:26:16;12.43;;;2.83;;
56860;SDS011;42744;51.094;3.490;2023-03-13T12:31:27;11.73;;;2.63;;
56860;SDS011;42744;51.094;3.490;2023-03-13T12:39:34;16.80;;;2.93;;
56860;SDS011;42744;51.094;3.490;2023-03-13T12:42:11;15.20;;;3.07;;
56860;SDS011;42744;51.094;3.490;2023-03-13T12:44:57;11.47;;;2.43;;
56860;SDS011;42744;51.094;3.490;2023-03-13T12:47:31;11.53;;;2.80;;
56860;SDS011;42744;51.094;3.490;2023-03-13T12:50:10;14.73;;;3.20;;
56860;SDS011;42744;51.094;3.490;2023-03-13T12:58:05;9.73;;;2.40;;
56860;SDS011;42744;51.094;3.490;2023-03-13T13:00:38;16.60;;;3.20;;
56860;SDS011;42744;51.094;3.490;2023-03-13T13:05:58;11.23;;;3.00;;
56860;SDS011;42744;51.094;3.490;2023-03-13T13:16:42;13.13;;;3.20;;
56860;SDS011;42744;51.094;3.490;2023-03-13T13:19:55;13.00;;;3.13;;
56860;SDS011;42744;51.094;3.490;2023-03-13T13:27:44;18.23;;;3.13;;
56860;SDS011;42744;51.094;3.490;2023-03-13T13:32:47;11.97;;;3.10;;
56860;SDS011;42744;51.094;3.490;2023-03-13T13:35:34;12.13;;;2.77;;
56860;SDS011;42744;51.094;3.490;2023-03-13T13:40:58;12.40;;;2.90;;
56860;SDS011;42744;51.094;3.490;2023-03-13T13:43:48;15.40;;;3.27;;
56860;SDS011;42744;51.094;3.490;2023-03-13T13:46:47;17.73;;;3.07;;
56860;SDS011;42744;51.094;3.490;2023-03-13T13:49:15;17.43;;;3.20;;
56860;SDS011;42744;51.094;3.490;2023-03-13T13:55:14;13.20;;;2.80;;
56860;SDS011;42744;51.094;3.490;2023-03-13T13:57:19;12.00;;;3.13;;
56860;SDS011;42744;51.094;3.490;2023-03-13T14:02:51;14.57;;;3.33;;
56860;SDS011;42744;51.094;3.490;2023-03-13T14:05:20;13.37;;;3.37;;
56860;SDS011;42744;51.094;3.490;2023-03-13T14:07:48;10.43;;;2.80;;
56860;SDS011;42744;51.094;3.490;2023-03-13T14:10:37;13.50;;;2.77;;
56860;SDS011;42744;51.094;3.490;2023-03-13T14:15:45;18.27;;;3.43;;
56860;SDS011;42744;51.094;3.490;2023-03-13T14:18:25;14.73;;;3.07;;
56860;SDS011;42744;51.094;3.490;2023-03-13T14:21:02;13.33;;;3.07;;
56860;SDS011;42744;51.094;3.490;2023-03-13T14:23:38;13.60;;;3.03;;
56860;SDS011;42744;51.094;3.490;2023-03-13T14:26:16;18.03;;;3.33;;
56860;SDS011;42744;51.094;3.490;2023-03-13T14:28:46;12.50;;;3.27;;
56860;SDS011;42744;51.094;3.490;2023-03-13T14:33:52;9.67;;;3.00;;
56860;SDS011;42744;51.094;3.490;2023-03-13T14:36:19;17.17;;;3.50;;
56860;SDS011;42744;51.094;3.490;2023-03-13T14:38:52;13.30;;;3.33;;
56860;SDS011;42744;51.094;3.490;2023-03-13T14:41:26;10.33;;;2.80;;
56860;SDS011;42744;51.094;3.490;2023-03-13T14:43:52;10.47;;;2.57;;
56860;SDS011;42744;51.094;3.490;2023-03-13T14:46:30;14.77;;;3.23;;
56860;SDS011;42744;51.094;3.490;2023-03-13T14:49:34;9.60;;;3.40;;
56860;SDS011;42744;51.094;3.490;2023-03-13T14:52:06;19.00;;;3.73;;
56860;SDS011;42744;51.094;3.490;2023-03-13T14:58:01;13.33;;;3.87;;
56860;SDS011;42744;51.094;3.490;2023-03-13T15:00:37;16.23;;;3.43;;
56860;SDS011;42744;51.094;3.490;2023-03-13T15:03:17;17.27;;;3.53;;
56860;SDS011;42744;51.094;3.490;2023-03-13T15:08:35;14.57;;;3.10;;
56860;SDS011;42744;51.094;3.490;2023-03-13T15:13:43;11.87;;;2.77;;
56860;SDS011;42744;51.094;3.490;2023-03-13T15:16:20;12.70;;;2.63;;
56860;SDS011;42744;51.094;3.490;2023-03-13T15:18:47;11.83;;;2.97;;
56860;SDS011;42744;51.094;3.490;2023-03-13T15:21:18;11.73;;;2.90;;
56860;SDS011;42744;51.094;3.490;2023-03-13T15:23:50;11.73;;;2.87;;
56860;SDS011;42744;51.094;3.490;2023-03-13T15:26:29;13.57;;;2.87;;
56860;SDS011;42744;51.094;3.490;2023-03-13T15:28:55;13.50;;;2.70;;
56860;SDS011;42744;51.094;3.490;2023-03-13T15:31:22;11.33;;;2.60;;
56860;SDS011;42744;51.094;3.490;2023-03-13T15:33:53;13.00;;;2.97;;
56860;SDS011;42744;51.094;3.490;2023-03-13T15:36:22;10.67;;;2.50;;
56860;SDS011;42744;51.094;3.490;2023-03-13T15:38:48;13.00;;;2.77;;
56860;SDS011;42744;51.094;3.490;2023-03-13T15:41:16;10.50;;;3.10;;
56860;SDS011;42744;51.094;3.490;2023-03-13T15:43:43;9.87;;;2.63;;
56860;SDS011;42744;51.094;3.490;2023-03-13T15:46:10;12.33;;;3.50;;
56860;SDS011;42744;51.094;3.490;2023-03-13T15:48:39;17.67;;;3.47;;
56860;SDS011;42744;51.094;3.490;2023-03-13T15:51:09;12.57;;;3.17;;
56860;SDS011;42744;51.094;3.490;2023-03-13T15:53:38;11.73;;;3.60;;
56860;SDS011;42744;51.094;3.490;2023-03-13T15:56:10;13.90;;;3.43;;
56860;SDS011;42744;51.094;3.490;2023-03-13T15:58:39;12.87;;;3.00;;
56860;SDS011;42744;51.094;3.490;2023-03-13T16:01:05;13.07;;;3.20;;
56860;SDS011;42744;51.094;3.490;2023-03-13T16:03:31;11.90;;;2.80;;
56860;SDS011;42744;51.094;3.490;2023-03-13T16:05:57;12.67;;;3.53;;
56860;SDS011;42744;51.094;3.490;2023-03-13T16:08:25;11.70;;;3.23;;
56860;SDS011;42744;51.094;3.490;2023-03-13T16:10:52;16.43;;;3.40;;
56860;SDS011;42744;51.094;3.490;2023-03-13T16:13:19;12.47;;;3.10;;
56860;SDS011;42744;51.094;3.490;2023-03-13T16:15:45;15.40;;;2.63;;
56860;SDS011;42744;51.094;3.490;2023-03-13T16:18:15;14.97;;;3.33;;
56860;SDS011;42744;51.094;3.490;2023-03-13T16:20:47;19.40;;;4.27;;
56860;SDS011;42744;51.094;3.490;2023-03-13T16:23:14;17.27;;;3.73;;
56860;SDS011;42744;51.094;3.490;2023-03-13T16:25:41;12.93;;;3.80;;
56860;SDS011;42744;51.094;3.490;2023-03-13T16:28:11;14.70;;;3.57;;
56860;SDS011;42744;51.094;3.490;2023-03-13T16:30:38;14.30;;;3.23;;
56860;SDS011;42744;51.094;3.490;2023-03-13T16:33:05;15.03;;;3.40;;
56860;SDS011;42744;51.094;3.490;2023-03-13T16:35:32;18.37;;;4.30;;
56860;SDS011;42744;51.094;3.490;2023-03-13T16:37:59;13.07;;;3.23;;
56860;SDS011;42744;51.094;3.490;2023-03-13T16:40:26;19.30;;;3.47;;
56860;SDS011;42744;51.094;3.490;2023-03-13T16:42:54;17.07;;;3.47;;
56860;SDS011;42744;51.094;3.490;2023-03-13T16:45:22;15.67;;;3.53;;
56860;SDS011;42744;51.094;3.490;2023-03-13T16:47:48;13.57;;;3.43;;
56860;SDS011;42744;51.094;3.490;2023-03-13T16:52:46;16.73;;;2.87;;
56860;SDS011;42744;51.094;3.490;2023-03-13T16:55:12;15.57;;;3.53;;
56860;SDS011;42744;51.094;3.490;2023-03-13T16:57:38;15.17;;;3.07;;
56860;SDS011;42744;51.094;3.490;2023-03-13T17:00:38;18.00;;;3.57;;
56860;SDS011;42744;51.094;3.490;2023-03-13T17:02:57;15.57;;;3.77;;
56860;SDS011;42744;51.094;3.490;2023-03-13T17:05:24;17.07;;;4.57;;
56860;SDS011;42744;51.094;3.490;2023-03-13T17:07:51;16.40;;;3.33;;
56860;SDS011;42744;51.094;3.490;2023-03-13T17:10:21;14.57;;;3.73;;
56860;SDS011;42744;51.094;3.490;2023-03-13T17:12:49;14.83;;;4.43;;
56860;SDS011;42744;51.094;3.490;2023-03-13T17:15:16;9.93;;;3.60;;
56860;SDS011;42744;51.094;3.490;2023-03-13T17:17:43;15.20;;;3.47;;
56860;SDS011;42744;51.094;3.490;2023-03-13T17:20:20;17.37;;;3.70;;
56860;SDS011;42744;51.094;3.490;2023-03-13T17:22:51;14.63;;;3.00;;